createdAt,value
2023-03-10T00:01:14.117Z,99031.38
2023-03-10T00:03:42.237Z,99020.91
2023-03-10T00:06:11.229Z,99017.72
2023-03-10T00:08:39.515Z,99016.03
2023-03-10T00:11:10.198Z,99017.19
2023-03-10T00:13:38.588Z,99024.44
2023-03-10T00:16:07.386Z,99025.78
2023-03-10T00:18:36.056Z,99021.41
2023-03-10T00:21:11.926Z,99017.19
2023-03-10T00:23:40.141Z,99015.66
2023-03-10T00:26:12.601Z,99017.69
2023-03-10T00:28:41.017Z,99021.72
2023-03-10T00:31:12.374Z,99019.88
2023-03-10T00:33:40.796Z,99012.09
2023-03-10T00:36:10.902Z,99017.47
2023-03-10T00:38:40.318Z,99020.34
2023-03-10T00:41:13.060Z,99015.31
2023-03-10T00:43:41.989Z,99014.63
2023-03-10T00:46:10.282Z,99006.19
2023-03-10T00:48:38.880Z,99005.16
2023-03-10T00:51:08.536Z,99000.13
2023-03-10T00:53:37.877Z,98997.59
2023-03-10T00:56:12.400Z,98988.00
2023-03-10T00:58:41.176Z,98980.94
2023-03-10T01:01:14.953Z,98968.09
2023-03-10T01:03:43.568Z,98971.31
2023-03-10T01:06:11.849Z,98974.16
2023-03-10T01:08:40.205Z,98972.81
2023-03-10T01:11:08.578Z,98975.50
2023-03-10T01:13:39.934Z,98974.81
2023-03-10T01:16:09.679Z,98976.81
2023-03-10T01:18:38.521Z,98974.31
2023-03-10T01:21:07.810Z,98978.84
2023-03-10T01:23:35.935Z,98975.47
2023-03-10T01:26:03.961Z,98972.13
2023-03-10T01:28:32.198Z,98967.88
2023-03-10T01:31:01.714Z,98967.38
2023-03-10T01:33:29.839Z,98966.53
2023-03-10T01:35:57.975Z,98958.78
2023-03-10T01:38:26.100Z,98963.16
2023-03-10T01:40:54.231Z,98955.25
2023-03-10T01:43:28.868Z,98944.78
2023-03-10T01:46:41.824Z,98946.81
2023-03-10T01:49:17.779Z,98949.66
2023-03-10T01:51:49.873Z,98955.22
2023-03-10T01:54:21.711Z,98944.63
2023-03-10T01:56:52.365Z,98934.47
2023-03-10T01:59:21.806Z,98935.97
2023-03-10T02:01:52.751Z,98935.28
2023-03-10T02:04:27.211Z,98929.25
2023-03-10T02:06:57.828Z,98927.72
2023-03-10T02:09:27.050Z,98928.56
2023-03-10T02:11:55.520Z,98925.16
2023-03-10T02:14:23.677Z,98928.88
2023-03-10T02:16:53.211Z,98920.13
2023-03-10T02:19:35.718Z,98910.38
2023-03-10T02:22:07.345Z,98908.00
2023-03-10T02:24:44.379Z,98909.00
2023-03-10T02:27:17.160Z,98901.25
2023-03-10T02:29:58.828Z,98909.31
2023-03-10T02:32:31.119Z,98900.72
2023-03-10T02:34:59.446Z,98898.03
2023-03-10T02:37:30.526Z,98892.81
2023-03-10T02:40:00.328Z,98892.13
2023-03-10T02:42:34.118Z,98888.75
2023-03-10T02:45:03.698Z,98898.69
2023-03-10T02:47:32.090Z,98893.47
2023-03-10T02:50:00.399Z,98896.31
2023-03-10T02:52:33.546Z,98892.97
2023-03-10T02:55:01.432Z,98892.13
2023-03-10T02:57:31.296Z,98883.34
2023-03-10T03:00:02.005Z,98883.50
2023-03-10T03:02:32.950Z,98893.44
2023-03-10T03:05:01.097Z,98885.69
2023-03-10T03:07:29.291Z,98876.22
2023-03-10T03:09:57.795Z,98876.09
2023-03-10T03:12:26.109Z,98864.97
2023-03-10T03:14:55.669Z,98870.19
2023-03-10T03:17:23.728Z,98854.38
2023-03-10T03:19:51.842Z,98858.75
2023-03-10T03:22:19.954Z,98853.88
2023-03-10T03:24:48.090Z,98850.34
2023-03-10T03:27:16.170Z,98836.00
2023-03-10T03:29:44.364Z,98838.88
2023-03-10T03:32:13.905Z,98830.97
2023-03-10T03:34:42.044Z,98828.59
2023-03-10T03:37:10.070Z,98832.97
2023-03-10T03:39:38.350Z,98826.09
2023-03-10T03:42:07.172Z,98827.09
2023-03-10T03:44:35.321Z,98820.00
2023-03-10T03:47:03.757Z,98813.94
2023-03-10T03:49:35.443Z,98814.13
2023-03-10T03:52:03.737Z,98806.22
2023-03-10T03:54:33.240Z,98804.53
2023-03-10T03:57:01.366Z,98793.94
2023-03-10T03:59:29.860Z,98787.72
2023-03-10T04:01:57.931Z,98782.81
2023-03-10T04:04:26.050Z,98776.75
2023-03-10T04:06:55.786Z,98778.28
2023-03-10T04:09:23.911Z,98767.00
2023-03-10T04:11:52.218Z,98768.03
2023-03-10T04:14:20.287Z,98771.56
2023-03-10T04:16:48.537Z,98762.81
2023-03-10T04:19:16.750Z,98767.34
2023-03-10T04:21:44.994Z,98759.41
2023-03-10T04:24:14.422Z,98759.59
2023-03-10T04:26:43.561Z,98754.38
2023-03-10T04:29:11.710Z,98751.00
2023-03-10T04:31:40.328Z,98751.00
2023-03-10T04:34:08.613Z,98748.50
2023-03-10T04:36:36.838Z,98747.66
2023-03-10T04:39:07.125Z,98738.88
2023-03-10T04:41:36.863Z,98733.84
2023-03-10T04:44:05.431Z,98728.47
2023-03-10T04:46:33.885Z,98733.00
2023-03-10T04:49:01.968Z,98735.00
2023-03-10T04:51:30.128Z,98732.31
2023-03-10T04:53:59.959Z,98739.72
2023-03-10T04:56:29.281Z,98733.50
2023-03-10T04:58:59.362Z,98737.16
2023-03-10T05:01:32.285Z,98735.47
2023-03-10T05:04:00.557Z,98741.84
2023-03-10T05:06:29.041Z,98736.78
2023-03-10T05:08:57.783Z,98738.47
2023-03-10T05:11:26.268Z,98737.63
2023-03-10T05:13:54.300Z,98729.72
2023-03-10T05:16:23.954Z,98730.72
2023-03-10T05:18:52.170Z,98719.28
2023-03-10T05:21:21.651Z,98713.91
2023-03-10T05:23:50.070Z,98712.22
2023-03-10T05:26:18.685Z,98716.91
2023-03-10T05:28:46.722Z,98708.00
2023-03-10T05:31:17.029Z,98709.19
2023-03-10T05:33:47.017Z,98701.97
2023-03-10T05:36:15.342Z,98704.66
2023-03-10T05:38:43.560Z,98700.28
2023-03-10T05:41:12.208Z,98683.50
2023-03-10T05:43:40.550Z,98685.34
2023-03-10T05:46:09.345Z,98699.63
2023-03-10T05:48:37.457Z,98698.78
2023-03-10T05:51:10.181Z,98696.09
2023-03-10T05:53:39.226Z,98698.06
2023-03-10T05:56:09.081Z,98695.38
2023-03-10T05:58:37.698Z,98691.19
2023-03-10T06:01:07.101Z,98682.13
2023-03-10T06:03:36.189Z,98685.81
2023-03-10T06:06:07.681Z,98686.66
2023-03-10T06:08:36.460Z,98678.91
2023-03-10T06:11:05.848Z,98672.88
2023-03-10T06:13:34.161Z,98677.91
2023-03-10T06:16:05.124Z,98684.13
2023-03-10T06:18:34.478Z,98675.22
2023-03-10T06:21:09.650Z,98680.22
2023-03-10T06:23:38.816Z,98687.81
2023-03-10T06:26:09.310Z,98685.28
2023-03-10T06:28:39.405Z,98681.59
2023-03-10T06:31:10.258Z,98679.09
2023-03-10T06:33:38.748Z,98676.41
2023-03-10T06:36:10.636Z,98675.69
2023-03-10T06:38:39.169Z,98678.25
2023-03-10T06:41:08.409Z,98676.53
2023-03-10T06:43:37.190Z,98672.88
2023-03-10T06:46:07.472Z,98676.53
2023-03-10T06:48:36.295Z,98676.53
2023-03-10T06:51:08.906Z,98678.38
2023-03-10T06:53:37.339Z,98673.00
2023-03-10T06:56:07.480Z,98662.59
2023-03-10T06:58:38.269Z,98673.00
2023-03-10T07:01:08.053Z,98669.47
2023-03-10T07:03:37.459Z,98661.59
2023-03-10T07:06:06.893Z,98661.41
2023-03-10T07:08:36.901Z,98664.09
2023-03-10T07:11:05.242Z,98667.63
2023-03-10T07:13:33.327Z,98657.06
2023-03-10T07:16:01.808Z,98660.41
2023-03-10T07:18:29.918Z,98664.09
2023-03-10T07:20:58.484Z,98662.44
2023-03-10T07:23:27.084Z,98665.94
2023-03-10T07:25:58.383Z,98671.16
2023-03-10T07:28:27.072Z,98655.91
2023-03-10T07:30:57.746Z,98657.44
2023-03-10T07:33:26.074Z,98663.13
2023-03-10T07:35:54.594Z,98661.66
2023-03-10T07:38:22.928Z,98659.38
2023-03-10T07:40:51.148Z,98652.19
2023-03-10T07:43:23.033Z,98650.88
2023-03-10T07:45:53.472Z,98657.66
2023-03-10T07:48:21.705Z,98654.63
2023-03-10T07:50:57.220Z,98656.50
2023-03-10T07:53:25.512Z,98650.44
2023-03-10T07:55:54.023Z,98643.56
2023-03-10T07:58:25.457Z,98646.56
2023-03-10T08:00:59.232Z,98633.13
2023-03-10T08:03:28.996Z,98635.31
2023-03-10T08:05:59.755Z,98627.91
2023-03-10T08:08:28.346Z,98622.38
2023-03-10T08:11:02.389Z,98610.75
2023-03-10T08:13:33.090Z,98616.97
2023-03-10T08:16:02.093Z,98624.03
2023-03-10T08:18:31.526Z,98613.44
2023-03-10T08:21:00.474Z,98609.56
2023-03-10T08:23:28.634Z,98596.28
2023-03-10T08:25:56.841Z,98606.03
2023-03-10T08:28:25.750Z,98605.06
2023-03-10T08:31:04.201Z,98589.75
2023-03-10T08:33:33.609Z,98590.59
2023-03-10T08:36:06.713Z,98589.75
2023-03-10T08:38:34.895Z,98586.06
2023-03-10T08:41:11.319Z,98596.81
2023-03-10T08:43:39.910Z,98580.66
2023-03-10T08:46:10.888Z,98576.31
2023-03-10T08:48:42.555Z,98573.63
2023-03-10T08:51:15.070Z,98561.13
2023-03-10T08:53:46.670Z,98569.91
2023-03-10T08:56:16.202Z,98565.38
2023-03-10T08:58:45.115Z,98562.50
2023-03-10T09:01:16.668Z,98561.66
2023-03-10T09:03:46.410Z,98552.75
2023-03-10T09:06:15.030Z,98552.56
2023-03-10T09:08:43.275Z,98553.41
2023-03-10T09:11:17.159Z,98547.00
2023-03-10T09:13:45.541Z,98539.78
2023-03-10T09:16:15.367Z,98552.22
2023-03-10T09:18:43.834Z,98542.66
2023-03-10T09:21:14.401Z,98552.41
2023-03-10T09:23:44.700Z,98540.63
2023-03-10T09:26:13.172Z,98538.59
2023-03-10T09:28:41.550Z,98532.38
2023-03-10T09:31:12.858Z,98540.28
2023-03-10T09:33:45.103Z,98527.81
2023-03-10T09:36:13.927Z,98533.22
2023-03-10T09:38:43.049Z,98530.84
2023-03-10T09:41:34.697Z,98521.75
2023-03-10T09:44:23.749Z,98515.38
2023-03-10T09:47:05.022Z,98511.66
2023-03-10T09:49:38.611Z,98506.94
2023-03-10T09:52:20.926Z,98500.41
2023-03-10T09:54:58.809Z,98508.28
2023-03-10T09:57:28.340Z,98491.78
2023-03-10T10:00:01.091Z,98485.75
2023-03-10T10:02:33.662Z,98477.97
2023-03-10T10:05:08.406Z,98484.34
2023-03-10T10:07:43.904Z,98476.91
2023-03-10T10:10:18.587Z,98479.94
2023-03-10T10:12:48.280Z,98473.84
2023-03-10T10:15:17.986Z,98463.56
2023-03-10T10:18:12.063Z,98452.44
2023-03-10T10:20:53.772Z,98445.50
2023-03-10T10:23:29.712Z,98437.06
2023-03-10T10:26:02.803Z,98432.16
2023-03-10T10:28:35.971Z,98434.31
2023-03-10T10:31:17.238Z,98430.25
2023-03-10T10:33:57.555Z,98424.50
2023-03-10T10:36:28.701Z,98414.22
2023-03-10T10:38:58.145Z,98413.66
2023-03-10T10:41:29.261Z,98414.97
2023-03-10T10:44:01.237Z,98412.94
2023-03-10T10:46:30.882Z,98419.66
2023-03-10T10:49:05.106Z,98412.03
2023-03-10T10:51:37.937Z,98406.28
2023-03-10T10:54:22.882Z,98401.72
2023-03-10T10:56:55.551Z,98395.44
2023-03-10T10:59:28.258Z,98392.38
2023-03-10T11:01:58.777Z,98392.22
2023-03-10T11:04:48.051Z,98395.56
2023-03-10T11:07:20.261Z,98388.16
2023-03-10T11:09:49.006Z,98380.31
2023-03-10T11:12:22.845Z,98372.09
2023-03-10T11:15:06.575Z,98365.09
2023-03-10T11:17:39.464Z,98365.59
2023-03-10T11:20:18.981Z,98359.53
2023-03-10T11:22:54.093Z,98349.22
2023-03-10T11:25:30.898Z,98353.59
2023-03-10T11:28:15.680Z,98338.44
2023-03-10T11:30:53.464Z,98339.91
2023-03-10T11:33:29.153Z,98331.63
2023-03-10T11:36:01.270Z,98326.88
2023-03-10T11:38:38.701Z,98315.94
2023-03-10T11:41:12.418Z,98312.22
2023-03-10T11:43:54.233Z,98309.13
2023-03-10T11:46:26.372Z,98293.59
2023-03-10T11:49:04.095Z,98294.41
2023-03-10T11:51:38.668Z,98287.47
2023-03-10T11:54:15.276Z,98269.03
2023-03-10T11:56:44.276Z,98261.56
2023-03-10T11:59:18.097Z,98261.00
2023-03-10T12:01:52.373Z,98253.56
2023-03-10T12:04:24.169Z,98251.31
2023-03-10T12:06:56.174Z,98256.91
2023-03-10T12:09:34.672Z,98250.38
2023-03-10T12:12:05.071Z,98251.50
2023-03-10T12:14:35.198Z,98239.28
2023-03-10T12:17:05.484Z,98226.88
2023-03-10T12:19:33.650Z,98229.81
2023-03-10T12:22:25.383Z,98231.13
2023-03-10T12:24:54.842Z,98225.34
2023-03-10T12:27:22.996Z,98213.31
2023-03-10T12:29:51.257Z,98204.47
2023-03-10T12:32:47.410Z,98203.06
2023-03-10T12:35:46.334Z,98198.31
2023-03-10T12:38:31.398Z,98187.31
2023-03-10T12:41:01.866Z,98184.03
2023-03-10T12:44:03.290Z,98174.31
2023-03-10T12:46:43.613Z,98164.78
2023-03-10T12:49:28.103Z,98153.78
2023-03-10T12:52:03.485Z,98155.28
2023-03-10T12:54:43.932Z,98154.22
2023-03-10T12:57:18.972Z,98150.94
2023-03-10T12:59:55.674Z,98141.41
2023-03-10T13:02:33.601Z,98149.75
2023-03-10T13:05:08.048Z,98136.88
2023-03-10T13:07:37.941Z,98134.00
2023-03-10T13:10:08.015Z,98134.03
2023-03-10T13:12:48.040Z,98134.28
2023-03-10T13:15:24.881Z,98136.56
2023-03-10T13:17:55.214Z,98117.25
2023-03-10T13:20:24.484Z,98118.72
2023-03-10T13:22:57.691Z,98124.38
2023-03-10T13:25:26.740Z,98116.03
2023-03-10T13:27:57.548Z,98121.69
2023-03-10T13:30:28.071Z,98109.66
2023-03-10T13:32:58.376Z,98118.00
2023-03-10T13:35:32.026Z,98115.50
2023-03-10T13:38:08.737Z,98100.94
2023-03-10T13:40:38.724Z,98102.19
2023-03-10T13:43:19.766Z,98099.94
2023-03-10T13:45:54.750Z,98091.38
2023-03-10T13:48:24.541Z,98089.72
2023-03-10T13:51:06.244Z,98091.38
2023-03-10T13:53:34.429Z,98071.84
2023-03-10T13:56:15.795Z,98086.38
2023-03-10T13:58:47.301Z,98082.84
2023-03-10T14:01:19.895Z,98073.91
2023-03-10T14:03:56.728Z,98079.31
2023-03-10T14:06:25.435Z,98072.41
2023-03-10T14:08:54.396Z,98067.22
2023-03-10T14:11:34.370Z,98085.31
2023-03-10T14:14:07.844Z,98080.94
2023-03-10T14:16:51.244Z,98065.97
2023-03-10T14:19:49.133Z,98067.63
2023-03-10T14:22:40.713Z,98070.53
2023-03-10T14:25:19.297Z,98066.34
2023-03-10T14:27:53.324Z,98062.59
2023-03-10T14:30:26.645Z,98067.81
2023-03-10T14:32:55.961Z,98063.44
2023-03-10T14:35:25.124Z,98060.09
2023-03-10T14:37:56.334Z,98065.88
2023-03-10T14:40:26.652Z,98065.72
2023-03-10T14:42:58.891Z,98064.88
2023-03-10T14:45:31.953Z,98054.25
2023-03-10T14:48:01.406Z,98058.81
2023-03-10T14:50:30.981Z,98054.25
2023-03-10T14:52:59.111Z,98046.34
2023-03-10T14:55:27.443Z,98041.78
2023-03-10T14:57:59.843Z,98039.28
2023-03-10T15:00:29.491Z,98031.16
2023-03-10T15:02:57.666Z,98024.94
2023-03-10T15:05:44.994Z,98020.56
2023-03-10T15:08:15.409Z,98022.44
2023-03-10T15:10:46.752Z,98031.56
2023-03-10T15:13:15.710Z,98020.13
2023-03-10T15:15:47.140Z,98017.00
2023-03-10T15:18:17.710Z,98022.19
2023-03-10T15:20:46.088Z,98011.78
2023-03-10T15:23:17.603Z,98012.19
2023-03-10T15:25:46.973Z,98020.50
2023-03-10T15:28:15.279Z,98010.91
2023-03-10T15:30:43.433Z,98011.97
2023-03-10T15:33:13.097Z,98011.53
2023-03-10T15:35:42.444Z,98015.06
2023-03-10T15:38:13.642Z,98016.47
2023-03-10T15:40:43.170Z,98012.94
2023-03-10T15:43:11.740Z,98016.91
2023-03-10T15:45:42.858Z,98011.69
2023-03-10T15:48:12.804Z,98009.19
2023-03-10T15:50:42.877Z,98016.84
2023-03-10T15:53:14.195Z,98018.72
2023-03-10T15:55:46.251Z,98021.63
2023-03-10T15:58:17.038Z,98015.38
2023-03-10T16:00:45.534Z,98002.91
2023-03-10T16:03:18.250Z,98001.47
2023-03-10T16:05:49.022Z,98005.00
2023-03-10T16:08:19.158Z,98001.66
2023-03-10T16:10:53.117Z,98006.66
2023-03-10T16:13:21.665Z,98006.84
2023-03-10T16:15:50.116Z,98000.16
2023-03-10T16:18:20.120Z,98002.44
2023-03-10T16:20:58.711Z,97999.13
2023-03-10T16:23:35.916Z,97993.25
2023-03-10T16:26:08.993Z,98001.56
2023-03-10T16:28:37.918Z,98007.38
2023-03-10T16:31:07.577Z,98009.44
2023-03-10T16:33:37.845Z,98009.63
2023-03-10T16:36:08.627Z,98011.22
2023-03-10T16:38:37.249Z,98026.38
2023-03-10T16:41:05.621Z,98033.03
2023-03-10T16:43:34.113Z,98028.66
2023-03-10T16:46:09.025Z,98032.59
2023-03-10T16:48:42.319Z,98020.09
2023-03-10T16:51:23.672Z,98029.63
2023-03-10T16:53:52.163Z,98032.13
2023-03-10T16:56:21.127Z,98034.63
2023-03-10T16:58:49.282Z,98036.75
2023-03-10T17:01:17.481Z,98041.19
2023-03-10T17:03:48.879Z,98036.28
2023-03-10T17:06:20.175Z,98049.47
2023-03-10T17:08:49.031Z,98054.97
2023-03-10T17:11:22.909Z,98048.38
2023-03-10T17:13:53.682Z,98053.19
2023-03-10T17:16:23.566Z,98058.44
2023-03-10T17:18:53.914Z,98054.53
2023-03-10T17:21:24.956Z,98056.19
2023-03-10T17:23:53.425Z,98064.78
2023-03-10T17:26:22.118Z,98056.72
2023-03-10T17:28:55.483Z,98068.41
2023-03-10T17:31:27.083Z,98056.31
2023-03-10T17:33:59.287Z,98054.03
2023-03-10T17:36:28.349Z,98055.72
2023-03-10T17:38:58.750Z,98059.44
2023-03-10T17:41:28.075Z,98059.44
2023-03-10T17:43:56.698Z,98053.41
2023-03-10T17:46:27.311Z,98043.44
2023-03-10T17:48:57.850Z,98051.97
2023-03-10T17:51:27.737Z,98052.38
2023-03-10T17:53:58.320Z,98047.81
2023-03-10T17:56:26.619Z,98047.19
2023-03-10T17:58:55.191Z,98049.22
2023-03-10T18:01:26.857Z,98060.03
2023-03-10T18:03:57.161Z,98045.06
2023-03-10T18:06:27.109Z,98047.97
2023-03-10T18:08:56.724Z,98054.44
2023-03-10T18:11:25.460Z,98050.28
2023-03-10T18:13:54.741Z,98041.50
2023-03-10T18:16:25.071Z,98037.31
2023-03-10T18:18:54.202Z,98035.84
2023-03-10T18:21:25.491Z,98039.38
2023-03-10T18:23:54.227Z,98055.16
2023-03-10T18:26:27.440Z,98075.97
2023-03-10T18:28:58.852Z,98074.50
2023-03-10T18:31:30.143Z,98075.53
2023-03-10T18:33:58.586Z,98086.34
2023-03-10T18:36:29.476Z,98083.84
2023-03-10T18:38:57.916Z,98081.78
2023-03-10T18:41:29.349Z,98090.94
2023-03-10T18:43:59.911Z,98083.22
2023-03-10T18:46:28.082Z,98079.88
2023-03-10T18:48:56.500Z,98075.91
2023-03-10T18:51:26.390Z,98077.97
2023-03-10T18:53:56.676Z,98088.16
2023-03-10T18:56:25.999Z,98085.84
2023-03-10T18:58:54.271Z,98095.19
2023-03-10T19:01:23.180Z,98082.09
2023-03-10T19:03:51.519Z,98083.72
2023-03-10T19:06:19.936Z,98087.25
2023-03-10T19:08:48.036Z,98085.78
2023-03-10T19:11:17.676Z,98084.53
2023-03-10T19:13:45.787Z,98088.25
2023-03-10T19:16:13.843Z,98094.03
2023-03-10T19:18:41.960Z,98096.13
2023-03-10T19:21:12.981Z,98085.72
2023-03-10T19:23:44.040Z,98094.00
2023-03-10T19:26:12.878Z,98092.75
2023-03-10T19:28:42.680Z,98096.47
2023-03-10T19:31:12.710Z,98096.69
2023-03-10T19:33:41.152Z,98090.66
2023-03-10T19:36:12.595Z,98083.31
2023-03-10T19:38:42.625Z,98087.69
2023-03-10T19:41:13.684Z,98074.59
2023-03-10T19:43:43.881Z,98065.19
2023-03-10T19:46:14.126Z,98052.09
2023-03-10T19:48:42.669Z,98058.53
2023-03-10T19:51:19.396Z,98049.78
2023-03-10T19:53:47.631Z,98057.22
2023-03-10T19:56:17.718Z,98054.94
2023-03-10T19:58:49.332Z,98056.34
2023-03-10T20:01:19.886Z,98064.28
2023-03-10T20:03:48.357Z,98075.25
2023-03-10T20:06:16.523Z,98073.75
2023-03-10T20:08:44.604Z,98073.94
2023-03-10T20:11:14.685Z,98067.91
2023-03-10T20:13:44.076Z,98060.22
2023-03-10T20:16:15.993Z,98044.16
2023-03-10T20:18:44.418Z,98058.72
2023-03-10T20:21:12.612Z,98058.94
2023-03-10T20:23:40.761Z,98053.94
2023-03-10T20:26:11.009Z,98046.22
2023-03-10T20:28:39.865Z,98044.56
2023-03-10T20:31:08.274Z,98041.19
2023-03-10T20:33:38.082Z,98039.53
2023-03-10T20:36:08.638Z,98028.94
2023-03-10T20:38:36.714Z,98015.84
2023-03-10T20:41:05.453Z,98011.69
2023-03-10T20:43:33.835Z,98000.91
2023-03-10T20:46:01.910Z,97998.75
2023-03-10T20:48:30.237Z,98003.31
2023-03-10T20:51:00.350Z,97993.78
2023-03-10T20:53:28.798Z,97976.75
2023-03-10T20:55:56.947Z,97971.56
2023-03-10T20:58:25.176Z,97975.44
2023-03-10T21:00:53.526Z,97984.56
2023-03-10T21:03:22.492Z,97983.75
2023-03-10T21:05:50.667Z,97991.22
2023-03-10T21:08:20.553Z,97996.13
2023-03-10T21:10:49.506Z,97991.59
2023-03-10T21:13:17.771Z,97997.16
2023-03-10T21:15:45.917Z,97998.19
2023-03-10T21:18:13.968Z,98004.84
2023-03-10T21:20:42.581Z,98019.34
2023-03-10T21:23:10.890Z,98014.34
2023-03-10T21:25:41.330Z,98017.88
2023-03-10T21:28:10.049Z,98009.97
2023-03-10T21:30:42.581Z,98017.22
2023-03-10T21:33:10.958Z,98013.88
2023-03-10T21:35:40.522Z,98021.34
2023-03-10T21:38:08.646Z,98026.75
2023-03-10T21:40:36.807Z,98034.19
2023-03-10T21:43:06.281Z,98029.84
2023-03-10T21:45:37.377Z,98039.13
2023-03-10T21:48:06.303Z,98030.19
2023-03-10T21:50:34.764Z,98038.28
2023-03-10T21:53:03.382Z,98034.13
2023-03-10T21:55:34.459Z,98040.34
2023-03-10T21:58:03.034Z,98042.41
2023-03-10T22:00:32.907Z,98040.75
2023-03-10T22:03:01.009Z,98038.59
2023-03-10T22:05:29.331Z,98041.13
2023-03-10T22:07:58.490Z,98050.22
2023-03-10T22:10:26.775Z,98049.41
2023-03-10T22:12:54.815Z,98039.84
2023-03-10T22:15:26.312Z,98031.94
2023-03-10T22:17:56.805Z,98032.13
2023-03-10T22:20:26.945Z,98029.44
2023-03-10T22:22:55.507Z,98036.06
2023-03-10T22:25:23.974Z,98042.44
2023-03-10T22:27:54.661Z,98037.06
2023-03-10T22:30:24.380Z,98041.63
2023-03-10T22:32:52.878Z,98035.59
2023-03-10T22:35:23.402Z,98023.97
2023-03-10T22:37:52.036Z,98028.06
2023-03-10T22:40:22.214Z,98034.94
2023-03-10T22:42:50.516Z,98038.69
2023-03-10T22:45:20.907Z,98026.41
2023-03-10T22:47:49.963Z,98028.25
2023-03-10T22:50:20.806Z,98020.53
2023-03-10T22:52:51.034Z,98028.41
2023-03-10T22:55:23.627Z,98023.41
2023-03-10T22:57:52.161Z,98027.97
2023-03-10T23:00:22.250Z,98033.38
2023-03-10T23:02:52.243Z,98042.47
2023-03-10T23:05:21.371Z,98044.53
2023-03-10T23:07:51.368Z,98043.88
2023-03-10T23:10:22.938Z,98042.22
2023-03-10T23:12:52.317Z,98055.69
2023-03-10T23:15:25.198Z,98053.19
2023-03-10T23:17:54.522Z,98054.22
2023-03-10T23:20:26.836Z,98044.84
2023-03-10T23:22:57.455Z,98047.34
2023-03-10T23:25:27.630Z,98052.09
2023-03-10T23:27:56.024Z,98043.53
2023-03-10T23:30:24.979Z,98054.31
2023-03-10T23:32:54.359Z,98060.53
2023-03-10T23:35:25.627Z,98060.94
2023-03-10T23:37:54.024Z,98065.28
2023-03-10T23:40:27.061Z,98061.94
2023-03-10T23:42:55.399Z,98064.84
2023-03-10T23:45:24.880Z,98062.34
2023-03-10T23:47:55.533Z,98071.41
2023-03-10T23:50:27.034Z,98060.84
2023-03-10T23:52:55.214Z,98066.81
2023-03-10T23:55:26.565Z,98069.50
2023-03-10T23:57:54.813Z,98076.56
